Time;durP1;ratioP1;P1;durP2;ratioP2;P2;SDS_P1;SDS_P2;PMS_P1;PMS_P2;Temp;Humidity;BMP_temperature;BMP_pressure;BME280_temperature;BME280_humidity;BME280_pressure;Samples;Min_cycle;Max_cycle;Signal;HPM_P1;HPM_P2
2022/12/21 00:00:13;;;;;;;7.90;5.43;;;1.90;99.90;;;;;;5034689;28;20123;-78
2022/12/21 00:02:39;;;;;;;9.68;5.90;;;1.90;99.90;;;;;;5028734;28;20079;-81
2022/12/21 00:05:06;;;;;;;10.27;6.13;;;1.90;99.90;;;;;;5033882;28;20033;-81
2022/12/21 00:07:32;;;;;;;11.45;5.18;;;2.00;99.90;;;;;;5034186;28;20022;-81
2022/12/21 00:09:57;;;;;;;7.15;4.90;;;1.90;99.90;;;;;;5029000;28;20066;-80
2022/12/21 00:12:23;;;;;;;6.18;4.43;;;1.80;99.90;;;;;;5040888;28;20040;-85
2022/12/21 00:14:49;;;;;;;8.25;5.43;;;1.80;99.90;;;;;;5023427;28;20030;-86
2022/12/21 00:17:15;;;;;;;4.22;3.83;;;1.70;99.90;;;;;;5036489;28;20034;-86
2022/12/21 00:19:42;;;;;;;8.20;3.95;;;1.70;99.90;;;;;;5039617;28;20080;-87
2022/12/21 00:22:07;;;;;;;5.57;3.53;;;1.80;99.90;;;;;;5032489;28;20049;-85
2022/12/21 00:24:33;;;;;;;7.30;4.65;;;1.70;99.90;;;;;;5030951;28;20045;-86
2022/12/21 00:26:59;;;;;;;6.30;3.80;;;1.60;99.90;;;;;;5030108;28;20053;-81
2022/12/21 00:29:24;;;;;;;9.48;4.97;;;1.70;99.90;;;;;;5030584;28;20501;-81
2022/12/21 00:31:50;;;;;;;6.72;4.25;;;1.70;99.90;;;;;;5037951;28;20045;-89
2022/12/21 00:34:17;;;;;;;6.25;4.57;;;1.70;99.90;;;;;;5036242;28;20064;-88
2022/12/21 00:36:43;;;;;;;6.75;3.80;;;1.70;99.90;;;;;;5029612;28;20057;-81
2022/12/21 00:39:09;;;;;;;5.88;4.20;;;1.80;99.90;;;;;;5037844;28;20033;-81
2022/12/21 00:41:34;;;;;;;4.35;3.17;;;1.70;99.90;;;;;;5033345;28;20045;-81
2022/12/21 00:44:00;;;;;;;7.18;4.22;;;1.70;99.90;;;;;;5027396;28;20108;-81
2022/12/21 00:46:31;;;;;;;8.75;4.10;;;1.70;99.90;;;;;;5039025;28;20037;-82
2022/12/21 00:48:59;;;;;;;9.05;4.88;;;1.80;99.90;;;;;;5033329;28;20033;-81
2022/12/21 00:51:26;;;;;;;9.15;5.18;;;1.80;99.90;;;;;;5052601;28;20032;-86
2022/12/21 00:53:53;;;;;;;7.18;4.95;;;1.90;99.90;;;;;;5036573;28;20382;-87
2022/12/21 00:56:19;;;;;;;5.22;4.32;;;1.80;99.90;;;;;;5044162;28;20061;-86
2022/12/21 00:58:45;;;;;;;5.97;4.18;;;1.80;99.90;;;;;;5029869;28;20420;-87
2022/12/21 01:01:32;;;;;;;4.05;3.13;;;1.80;99.90;;;;;;5041157;28;20041;-76
2022/12/21 01:03:58;;;;;;;4.78;2.53;;;1.80;99.90;;;;;;5025832;28;20052;-76
2022/12/21 01:06:29;;;;;;;6.35;3.55;;;1.70;99.90;;;;;;5026687;28;20042;-76
2022/12/21 01:08:55;;;;;;;4.88;4.07;;;1.70;99.90;;;;;;5034537;28;20096;-75
2022/12/21 01:11:23;;;;;;;8.63;4.95;;;1.70;99.90;;;;;;5032358;28;20017;-75
2022/12/21 01:13:49;;;;;;;9.23;5.60;;;1.70;99.90;;;;;;5041526;28;20071;-78
2022/12/21 01:16:30;;;;;;;4.85;4.32;;;1.70;99.90;;;;;;5031741;28;20034;-77
2022/12/21 01:18:56;;;;;;;6.38;4.40;;;1.80;99.90;;;;;;5028125;28;20056;-77
2022/12/21 01:21:24;;;;;;;7.28;4.82;;;1.80;99.90;;;;;;5025490;28;20374;-79
2022/12/21 01:23:50;;;;;;;9.23;5.07;;;1.80;99.90;;;;;;5024718;28;20060;-79
2022/12/21 01:26:16;;;;;;;4.57;3.60;;;1.80;99.90;;;;;;5016984;28;20037;-79
2022/12/21 01:28:42;;;;;;;4.05;3.72;;;1.80;99.90;;;;;;5029058;28;20033;-79
2022/12/21 01:31:08;;;;;;;5.28;4.43;;;1.70;99.90;;;;;;5021833;28;20030;-79
2022/12/21 01:33:33;;;;;;;6.45;4.47;;;1.70;99.90;;;;;;5009525;28;20038;-79
2022/12/21 01:36:18;;;;;;;7.18;4.75;;;1.70;99.90;;;;;;4999527;28;20034;-79
2022/12/21 01:38:45;;;;;;;5.93;4.07;;;1.80;99.90;;;;;;5024502;28;20032;-79
2022/12/21 01:41:25;;;;;;;4.65;3.63;;;1.80;99.90;;;;;;5016759;28;20053;-80
2022/12/21 01:44:02;;;;;;;5.25;3.42;;;1.80;99.90;;;;;;5020087;28;20033;-79
2022/12/21 01:46:38;;;;;;;3.42;2.72;;;1.90;99.90;;;;;;5017784;28;20022;-79
2022/12/21 01:49:25;;;;;;;2.72;2.58;;;1.80;99.90;;;;;;5016770;28;20033;-80
2022/12/21 01:51:58;;;;;;;6.05;3.33;;;1.70;99.90;;;;;;5014573;28;20030;-80
2022/12/21 01:54:48;;;;;;;4.45;4.05;;;1.70;99.90;;;;;;5018600;28;20033;-80
2022/12/21 01:57:15;;;;;;;2.40;2.30;;;1.70;99.90;;;;;;5016717;28;20039;-88
2022/12/21 01:59:47;;;;;;;2.47;2.38;;;1.70;99.90;;;;;;5024232;28;20046;-88
2022/12/21 02:02:21;;;;;;;7.93;2.10;;;1.70;99.90;;;;;;5029798;28;20090;-79
2022/12/21 02:04:49;;;;;;;6.63;4.45;;;1.70;99.90;;;;;;5030466;28;20051;-79
2022/12/21 02:07:15;;;;;;;5.97;4.13;;;1.80;99.90;;;;;;5037433;28;20045;-78
2022/12/21 02:09:42;;;;;;;5.15;3.95;;;1.80;99.90;;;;;;5017995;28;20037;-78
2022/12/21 02:12:13;;;;;;;4.03;3.38;;;1.90;99.90;;;;;;5038142;28;20014;-77
2022/12/21 02:14:43;;;;;;;11.20;5.28;;;2.00;99.90;;;;;;5021320;28;20032;-77
2022/12/21 02:17:38;;;;;;;8.23;5.25;;;2.00;99.90;;;;;;5020666;28;20025;-77
2022/12/21 02:20:42;;;;;;;5.38;3.67;;;2.00;99.90;;;;;;5039364;28;20014;-77
2022/12/21 02:23:31;;;;;;;4.85;4.20;;;1.90;99.90;;;;;;5038075;28;20030;-78
2022/12/21 02:26:29;;;;;;;8.13;4.60;;;1.90;99.90;;;;;;5029076;28;20052;-75
2022/12/21 02:29:13;;;;;;;4.55;3.88;;;1.90;99.90;;;;;;5022286;28;20029;-76
2022/12/21 02:32:21;;;;;;;9.32;4.35;;;1.90;99.90;;;;;;5016619;28;20042;-75
2022/12/21 02:35:23;;;;;;;9.70;4.95;;;2.00;99.90;;;;;;5002397;28;20181;-75
2022/12/21 02:37:48;;;;;;;6.90;4.25;;;2.00;99.90;;;;;;4998260;28;20145;-75
2022/12/21 02:40:29;;;;;;;4.90;3.45;;;2.00;99.90;;;;;;4997076;28;20097;-76
2022/12/21 02:45:56;;;;;;;6.32;3.05;;;2.10;99.90;;;;;;4999081;28;20112;-80
2022/12/21 02:48:33;;;;;;;6.45;3.60;;;2.10;99.90;;;;;;5024636;28;20042;-80
2022/12/21 02:51:03;;;;;;;5.05;3.92;;;2.10;99.90;;;;;;5012252;28;20049;-80
2022/12/21 02:53:33;;;;;;;7.45;3.95;;;2.10;99.90;;;;;;5004883;28;20347;-80
2022/12/21 02:55:59;;;;;;;5.47;3.35;;;2.10;99.90;;;;;;5016797;28;20046;-80
2022/12/21 02:58:26;;;;;;;4.90;4.50;;;2.10;99.90;;;;;;5010667;28;20042;-79
2022/12/21 03:01:00;;;;;;;9.02;3.80;;;2.10;99.90;;;;;;4994776;28;20030;-79
2022/12/21 03:03:47;;;;;;;3.92;3.47;;;2.10;99.90;;;;;;5015827;28;20021;-79
2022/12/21 03:06:57;;;;;;;4.47;3.78;;;2.10;99.90;;;;;;5036279;28;20029;-87
2022/12/21 03:09:44;;;;;;;5.18;3.80;;;2.10;99.90;;;;;;5041772;28;20036;-87
2022/12/21 03:12:15;;;;;;;5.95;3.53;;;2.00;99.90;;;;;;5036932;28;20064;-81
2022/12/21 03:17:40;;;;;;;3.78;3.30;;;2.00;99.90;;;;;;5018543;28;20053;-29
2022/12/21 03:20:11;;;;;;;5.60;3.40;;;2.00;99.90;;;;;;5022256;28;20092;-31
2022/12/21 03:22:50;;;;;;;5.25;3.40;;;2.00;99.90;;;;;;5040130;28;20144;-32
2022/12/21 03:25:36;;;;;;;6.10;3.38;;;2.10;99.90;;;;;;5022962;28;20267;-28
2022/12/21 03:28:15;;;;;;;4.32;3.20;;;2.10;99.90;;;;;;5023194;28;20047;-28
2022/12/21 03:30:49;;;;;;;4.40;3.25;;;2.10;99.90;;;;;;5023770;28;20116;-28
2022/12/21 03:33:20;;;;;;;4.40;3.35;;;2.10;99.90;;;;;;5010734;28;20116;-31
2022/12/21 03:35:50;;;;;;;7.57;4.10;;;2.10;99.90;;;;;;5021729;28;20038;-28
2022/12/21 03:38:43;;;;;;;4.30;3.35;;;2.10;99.90;;;;;;5025318;28;20026;-30
2022/12/21 03:41:28;;;;;;;1.83;1.73;;;2.10;99.90;;;;;;5022680;28;20047;-31
2022/12/21 03:43:57;;;;;;;3.72;2.17;;;2.10;99.90;;;;;;5027498;28;20827;-29
2022/12/21 03:46:33;;;;;;;3.80;2.25;;;2.10;99.90;;;;;;5025032;28;20544;-28
2022/12/21 03:49:28;;;;;;;4.05;3.10;;;2.10;99.90;;;;;;5021135;28;20395;-30
2022/12/21 03:52:00;;;;;;;3.75;3.15;;;2.10;99.90;;;;;;5019706;28;20102;-31
2022/12/21 03:54:38;;;;;;;5.38;4.18;;;2.10;99.90;;;;;;5037251;28;20454;-31
2022/12/21 03:57:06;;;;;;;5.38;3.75;;;2.10;99.90;;;;;;5019625;28;20056;-30
2022/12/21 03:59:32;;;;;;;7.25;4.38;;;2.20;99.90;;;;;;5019727;28;20457;-31
2022/12/21 04:02:13;;;;;;;7.10;4.55;;;2.20;99.90;;;;;;5026640;28;20535;-29
2022/12/21 04:04:52;;;;;;;6.78;4.07;;;2.30;99.90;;;;;;5038428;28;20026;-28
2022/12/21 04:07:24;;;;;;;;;;;2.30;99.90;;;;;;5022472;28;20474;-29
2022/12/21 04:09:57;;;;;;;5.40;3.70;;;2.30;99.90;;;;;;5023114;28;19909;-32
2022/12/21 04:12:41;;;;;;;11.35;4.00;;;2.30;99.90;;;;;;5025566;28;20026;-29
2022/12/21 04:15:11;;;;;;;5.50;3.67;;;2.20;99.90;;;;;;5025577;28;20033;-28
2022/12/21 04:17:37;;;;;;;9.45;3.72;;;2.20;99.90;;;;;;5023998;28;20243;-29
2022/12/21 04:20:05;;;;;;;10.48;4.43;;;2.20;99.90;;;;;;5021831;28;20111;-29
2022/12/21 04:28:10;;;;;;;3.58;2.67;;;2.10;99.90;;;;;;5021705;28;20094;-28
2022/12/21 04:30:41;;;;;;;3.53;2.22;;;2.10;99.90;;;;;;5016918;28;20029;-31
2022/12/21 04:33:09;;;;;;;6.88;4.20;;;2.10;99.90;;;;;;5007294;28;20048;-28
2022/12/21 04:35:35;;;;;;;3.72;3.00;;;2.10;99.90;;;;;;5016927;28;20033;-29
2022/12/21 04:38:01;;;;;;;3.97;3.55;;;2.10;99.90;;;;;;5022275;28;20062;-28
2022/12/21 04:40:28;;;;;;;4.30;3.30;;;2.00;99.90;;;;;;5017071;28;20108;-30
2022/12/21 04:42:53;;;;;;;3.40;3.17;;;2.00;99.90;;;;;;5021643;28;20525;-32
2022/12/21 04:45:19;;;;;;;3.17;2.75;;;2.00;99.90;;;;;;5022688;28;20045;-29
2022/12/21 04:47:45;;;;;;;4.07;2.55;;;2.00;99.90;;;;;;5022727;28;20527;-29
2022/12/21 04:50:11;;;;;;;3.95;1.95;;;2.00;99.90;;;;;;5022447;28;20025;-28
2022/12/21 04:52:36;;;;;;;3.30;2.63;;;1.90;99.90;;;;;;5024477;28;20663;-30
2022/12/21 04:55:03;;;;;;;5.63;3.83;;;1.90;99.90;;;;;;5024259;28;20068;-32
2022/12/21 04:57:29;;;;;;;3.80;3.08;;;2.00;99.90;;;;;;5025158;28;20025;-28
2022/12/21 04:59:55;;;;;;;3.10;2.47;;;2.00;99.90;;;;;;5021050;28;20812;-29
2022/12/21 05:02:22;;;;;;;8.48;3.28;;;2.00;99.90;;;;;;5025411;28;20058;-31
2022/12/21 05:04:47;;;;;;;5.75;3.17;;;2.00;99.90;;;;;;5020850;28;20025;-29
2022/12/21 05:07:13;;;;;;;7.43;3.40;;;2.10;99.90;;;;;;5026047;28;20318;-28
2022/12/21 05:09:38;;;;;;;4.68;3.38;;;2.10;99.90;;;;;;5022529;28;20033;-31
2022/12/21 05:12:04;;;;;;;5.88;3.88;;;2.10;99.90;;;;;;5016019;28;20029;-31
2022/12/21 05:14:30;;;;;;;5.30;3.17;;;2.10;99.90;;;;;;5027189;28;20036;-32
2022/12/21 05:16:55;;;;;;;4.85;3.47;;;2.20;99.90;;;;;;5017462;28;20042;-32
2022/12/21 05:19:21;;;;;;;10.73;3.40;;;2.10;99.90;;;;;;5015964;28;20034;-32
2022/12/21 05:21:46;;;;;;;2.80;2.60;;;2.10;99.90;;;;;;5018367;28;20032;-30
2022/12/21 05:24:12;;;;;;;3.55;3.25;;;2.00;99.90;;;;;;5023677;28;20406;-29
2022/12/21 05:26:38;;;;;;;5.47;3.88;;;2.00;99.90;;;;;;5017623;28;21272;-29
2022/12/21 05:29:04;;;;;;;4.10;3.00;;;2.00;99.90;;;;;;5018598;28;20034;-29
2022/12/21 05:31:30;;;;;;;3.85;3.42;;;2.10;99.90;;;;;;5014115;28;20037;-29
2022/12/21 05:33:56;;;;;;;5.03;3.30;;;2.10;99.90;;;;;;5025772;28;20040;-29
2022/12/21 05:36:21;;;;;;;4.55;2.90;;;2.10;99.90;;;;;;5026870;28;20494;-31
2022/12/21 05:38:47;;;;;;;4.63;3.05;;;2.10;99.90;;;;;;5021621;28;20516;-29
2022/12/21 05:41:14;;;;;;;3.55;3.25;;;2.20;99.90;;;;;;5023860;28;20055;-29
2022/12/21 05:43:40;;;;;;;4.53;3.30;;;2.10;99.90;;;;;;5021508;28;20025;-29
2022/12/21 05:46:08;;;;;;;4.43;3.40;;;2.10;99.90;;;;;;5024292;28;20036;-35
2022/12/21 05:48:34;;;;;;;5.28;3.13;;;2.10;99.90;;;;;;5021164;28;20545;-31
2022/12/21 05:51:05;;;;;;;11.82;3.50;;;2.10;99.90;;;;;;5017533;28;20033;-29
2022/12/21 05:53:30;;;;;;;5.18;3.60;;;2.10;99.90;;;;;;5011324;28;20403;-29
2022/12/21 05:55:56;;;;;;;3.75;3.08;;;2.20;99.90;;;;;;5013023;28;20222;-30
2022/12/21 05:58:22;;;;;;;4.18;2.58;;;2.20;99.90;;;;;;5012415;28;20094;-30
2022/12/21 06:00:48;;;;;;;4.22;3.80;;;2.20;99.90;;;;;;5011718;28;20040;-34
2022/12/21 06:03:14;;;;;;;7.45;3.33;;;2.20;99.90;;;;;;5022524;28;20060;-29
2022/12/21 06:05:40;;;;;;;4.78;3.03;;;2.20;99.90;;;;;;5024338;28;20449;-31
2022/12/21 06:08:06;;;;;;;4.68;3.25;;;2.20;99.90;;;;;;5022123;28;20060;-30
2022/12/21 06:10:34;;;;;;;7.68;4.03;;;2.20;99.90;;;;;;5021705;28;20030;-31
2022/12/21 06:13:00;;;;;;;3.60;3.30;;;2.20;99.90;;;;;;5038281;28;20430;-28
2022/12/21 06:15:26;;;;;;;5.57;3.00;;;2.20;99.90;;;;;;5028473;28;20076;-30
2022/12/21 06:17:51;;;;;;;4.40;2.97;;;2.20;99.90;;;;;;5018892;28;20060;-28
2022/12/21 06:20:17;;;;;;;3.85;3.40;;;2.20;99.90;;;;;;5026562;28;20036;-28
2022/12/21 06:22:43;;;;;;;5.43;3.20;;;2.20;99.90;;;;;;5016982;28;20030;-28
2022/12/21 06:25:09;;;;;;;4.38;2.72;;;2.20;99.90;;;;;;5023979;28;20052;-30
2022/12/21 06:27:35;;;;;;;2.95;2.63;;;2.20;99.90;;;;;;5016475;28;20103;-29
2022/12/21 06:30:00;;;;;;;6.55;3.40;;;2.30;99.90;;;;;;5018298;28;21433;-29
2022/12/21 06:32:26;;;;;;;6.72;3.63;;;2.20;99.90;;;;;;5018514;28;20273;-30
2022/12/21 06:34:51;;;;;;;3.28;2.97;;;2.30;99.90;;;;;;5020828;28;20030;-32
2022/12/21 06:37:17;;;;;;;6.60;3.08;;;2.20;99.90;;;;;;5017081;28;20422;-31
2022/12/21 06:39:42;;;;;;;4.07;2.85;;;2.20;99.90;;;;;;5020166;28;20034;-29
2022/12/21 06:42:08;;;;;;;5.82;3.60;;;2.20;99.90;;;;;;5019806;28;20053;-34
2022/12/21 06:44:34;;;;;;;6.97;3.45;;;2.20;99.90;;;;;;5018987;28;20037;-31
2022/12/21 06:46:59;;;;;;;2.85;1.90;;;2.10;99.90;;;;;;5018387;28;20025;-31
2022/12/21 06:49:25;;;;;;;6.20;3.17;;;2.10;99.90;;;;;;5020711;28;20151;-29
2022/12/21 06:51:51;;;;;;;30.85;4.60;;;2.10;99.90;;;;;;5013565;28;20033;-30
2022/12/21 06:54:16;;;;;;;4.07;2.50;;;2.10;99.90;;;;;;5017765;28;20510;-32
2022/12/21 06:56:42;;;;;;;3.85;3.45;;;2.10;99.90;;;;;;5019450;28;20045;-29
2022/12/21 06:59:11;;;;;;;4.47;3.20;;;2.00;99.90;;;;;;5020658;28;20079;-29
2022/12/21 07:01:37;;;;;;;3.65;3.35;;;2.10;99.90;;;;;;5018119;28;20034;-31
2022/12/21 07:04:06;;;;;;;2.72;2.53;;;2.00;99.90;;;;;;5020211;28;20021;-28
2022/12/21 07:06:32;;;;;;;2.38;2.15;;;2.00;99.90;;;;;;5021471;28;20050;-37
2022/12/21 07:08:58;;;;;;;2.95;2.35;;;2.00;99.90;;;;;;5020545;28;20029;-29
2022/12/21 07:11:27;;;;;;;7.25;3.03;;;2.00;99.90;;;;;;5018968;28;20033;-35
2022/12/21 07:13:53;;;;;;;5.15;3.85;;;2.00;99.90;;;;;;5017593;28;20092;-37
2022/12/21 07:16:19;;;;;;;9.82;4.90;;;2.00;99.90;;;;;;5017265;28;20508;-32
2022/12/21 07:18:45;;;;;;;4.07;3.15;;;2.00;99.90;;;;;;5020287;28;20029;-29
2022/12/21 07:21:17;;;;;;;6.22;3.47;;;2.00;99.90;;;;;;5020044;28;20088;-32
2022/12/21 07:23:43;;;;;;;9.40;4.00;;;2.10;99.90;;;;;;5021795;28;20049;-29
2022/12/21 07:26:13;;;;;;;4.57;3.83;;;2.10;99.90;;;;;;5026473;28;20021;-32
2022/12/21 07:28:39;;;;;;;3.50;3.20;;;2.10;99.90;;;;;;5017373;28;20537;-29
2022/12/21 07:31:09;;;;;;;8.38;4.10;;;2.10;99.90;;;;;;5021855;28;20052;-32
2022/12/21 07:33:36;;;;;;;3.50;3.17;;;2.10;99.90;;;;;;5018613;28;20586;-29
2022/12/21 07:36:03;;;;;;;2.55;2.35;;;2.10;99.90;;;;;;5023544;28;20037;-29
2022/12/21 07:38:30;;;;;;;6.65;3.60;;;2.10;99.90;;;;;;5024828;28;20030;-35
2022/12/21 07:40:57;;;;;;;7.30;5.18;;;2.10;99.90;;;;;;5021159;28;20121;-30
2022/12/21 07:43:24;;;;;;;5.25;3.63;;;2.10;99.90;;;;;;5019143;28;20457;-28
2022/12/21 07:45:50;;;;;;;5.90;3.42;;;2.20;99.90;;;;;;5022023;28;20037;-29
2022/12/21 07:48:16;;;;;;;3.92;2.55;;;2.20;99.90;;;;;;5015443;28;20044;-31
2022/12/21 07:50:42;;;;;;;4.05;3.03;;;2.20;99.90;;;;;;5019054;28;20204;-29
2022/12/21 07:53:08;;;;;;;3.50;3.20;;;2.20;99.90;;;;;;5019109;28;20061;-31
2022/12/21 07:55:34;;;;;;;5.07;3.58;;;2.20;99.90;;;;;;5021781;28;20045;-31
2022/12/21 07:58:00;;;;;;;5.30;3.38;;;2.30;99.90;;;;;;5019102;28;20032;-29
2022/12/21 08:00:26;;;;;;;6.55;4.22;;;2.40;99.90;;;;;;5026575;28;20784;-29
2022/12/21 08:02:51;;;;;;;5.38;3.42;;;2.50;99.90;;;;;;5018765;28;21671;-30
2022/12/21 08:05:19;;;;;;;3.35;2.95;;;2.40;99.90;;;;;;5029349;28;20029;-28
2022/12/21 08:07:45;;;;;;;4.28;2.88;;;2.40;99.90;;;;;;5023435;28;20040;-31
2022/12/21 08:10:11;;;;;;;4.95;3.45;;;2.40;99.90;;;;;;5028069;28;20030;-28
2022/12/21 08:12:36;;;;;;;8.32;3.90;;;2.50;99.90;;;;;;5024896;28;20038;-29
2022/12/21 08:15:06;;;;;;;5.95;4.63;;;2.60;99.90;;;;;;5020152;28;20481;-29
2022/12/21 08:17:31;;;;;;;9.52;4.22;;;2.70;99.90;;;;;;5001979;28;20026;-33
2022/12/21 08:19:57;;;;;;;21.65;4.10;;;2.80;99.90;;;;;;5003527;28;20463;-29
2022/12/21 08:22:23;;;;;;;4.00;2.88;;;2.90;99.90;;;;;;5005749;28;20068;-29
2022/12/21 08:24:49;;;;;;;6.40;4.50;;;2.80;99.90;;;;;;5007869;28;20088;-31
2022/12/21 08:27:15;;;;;;;7.20;3.22;;;2.80;99.90;;;;;;5008799;28;20026;-29
2022/12/21 08:29:41;;;;;;;5.63;3.38;;;2.70;99.90;;;;;;5006040;28;20144;-28
2022/12/21 08:32:08;;;;;;;3.63;2.88;;;2.80;99.90;;;;;;5005226;28;20124;-28
2022/12/21 08:34:34;;;;;;;6.93;3.25;;;2.80;99.90;;;;;;5012575;28;20115;-28
2022/12/21 08:37:00;;;;;;;9.15;4.05;;;2.80;99.90;;;;;;5003344;28;20030;-29
2022/12/21 08:39:29;;;;;;;3.85;2.80;;;2.80;99.90;;;;;;5017975;28;20030;-29
2022/12/21 08:41:54;;;;;;;;;;;2.90;99.90;;;;;;5008553;28;20036;-29
2022/12/21 08:44:20;;;;;;;3.00;2.72;;;2.90;99.90;;;;;;5000642;28;19913;-28
2022/12/21 08:46:46;;;;;;;4.82;3.47;;;3.00;99.90;;;;;;5011654;28;20137;-28
2022/12/21 08:49:12;;;;;;;7.35;3.95;;;3.10;99.90;;;;;;5007525;28;20399;-30
2022/12/21 08:51:38;;;;;;;5.03;3.60;;;3.30;99.90;;;;;;5002813;28;20044;-29
2022/12/21 08:54:05;;;;;;;15.68;4.90;;;3.60;99.90;;;;;;5005528;28;20033;-29
2022/12/21 08:56:31;;;;;;;7.78;3.70;;;3.80;99.90;;;;;;5017216;28;20041;-29
2022/12/21 08:59:03;;;;;;;4.82;3.75;;;3.80;99.90;;;;;;5008330;28;20514;-30
2022/12/21 09:01:29;;;;;;;8.88;3.85;;;3.80;99.90;;;;;;4997860;28;20066;-30
2022/12/21 09:03:55;;;;;;;5.78;2.83;;;3.90;99.90;;;;;;5007572;28;20058;-29
2022/12/21 09:06:20;;;;;;;5.63;3.80;;;4.20;99.90;;;;;;5005298;28;20084;-29
2022/12/21 09:08:46;;;;;;;5.88;3.85;;;4.20;99.90;;;;;;5005090;28;20124;-29
2022/12/21 09:11:14;;;;;;;5.65;3.63;;;4.30;99.90;;;;;;5000283;28;20434;-29
2022/12/21 09:13:40;;;;;;;6.65;3.90;;;4.30;99.90;;;;;;5013798;28;20038;-31
2022/12/21 09:16:19;;;;;;;4.03;3.20;;;4.30;99.90;;;;;;5010062;28;20148;-33
2022/12/21 09:18:45;;;;;;;6.85;4.43;;;4.30;99.90;;;;;;5024198;28;20030;-30
2022/12/21 09:21:12;;;;;;;4.18;3.78;;;4.30;99.90;;;;;;5044353;28;20047;-30
2022/12/21 09:23:38;;;;;;;7.40;3.38;;;4.40;99.90;;;;;;5026019;28;20637;-30
2022/12/21 09:26:05;;;;;;;6.68;3.58;;;4.40;99.90;;;;;;5027594;28;20493;-31
2022/12/21 09:28:35;;;;;;;4.00;3.30;;;4.40;99.90;;;;;;5039406;28;20040;-34
2022/12/21 09:31:16;;;;;;;4.32;3.38;;;4.50;99.90;;;;;;5027412;28;20378;-29
2022/12/21 09:33:43;;;;;;;12.05;4.15;;;4.70;99.90;;;;;;5038778;28;20040;-30
2022/12/21 09:36:10;;;;;;;3.25;2.95;;;4.60;99.90;;;;;;5028411;28;20427;-32
2022/12/21 09:38:36;;;;;;;4.55;3.33;;;4.50;99.90;;;;;;5020800;28;20057;-32
2022/12/21 09:41:27;;;;;;;6.03;3.20;;;4.40;99.90;;;;;;5027926;28;20030;-33
2022/12/21 09:44:31;;;;;;;9.43;5.03;;;4.40;99.90;;;;;;5021242;28;20076;-30
2022/12/21 09:47:03;;;;;;;3.70;3.38;;;4.30;99.90;;;;;;4990505;28;20087;-30
2022/12/21 09:49:55;;;;;;;3.30;2.92;;;4.30;99.90;;;;;;5027855;28;20130;-29
2022/12/21 09:52:29;;;;;;;10.43;4.05;;;4.40;99.90;;;;;;5022817;28;20080;-30
2022/12/21 09:55:13;;;;;;;9.05;4.65;;;4.50;99.90;;;;;;5031764;28;20035;-30
2022/12/21 09:57:39;;;;;;;2.95;2.72;;;4.70;99.90;;;;;;5021335;28;20164;-31
2022/12/21 10:00:21;;;;;;;8.15;4.47;;;4.80;99.90;;;;;;5042155;28;20104;-29
2022/12/21 10:03:05;;;;;;;8.38;4.38;;;4.90;99.90;;;;;;5027033;28;20557;-29
2022/12/21 10:06:06;;;;;;;6.82;4.18;;;5.00;99.90;;;;;;5022441;28;20106;-30
2022/12/21 10:08:51;;;;;;;5.22;3.80;;;5.00;99.90;;;;;;5022927;28;20406;-29
2022/12/21 10:11:59;;;;;;;5.53;4.70;;;5.10;99.90;;;;;;5038499;28;20025;-29
2022/12/21 10:14:49;;;;;;;7.05;5.88;;;5.10;99.90;;;;;;5025426;28;20117;-32
2022/12/21 10:17:33;;;;;;;5.95;4.57;;;5.00;99.90;;;;;;5023508;28;20067;-30
2022/12/21 10:20:20;;;;;;;6.65;4.47;;;5.20;99.90;;;;;;5022623;28;20053;-31
2022/12/21 10:22:48;;;;;;;7.72;4.65;;;5.10;99.90;;;;;;5021424;28;20486;-31
2022/12/21 10:25:22;;;;;;;7.55;4.53;;;5.10;99.90;;;;;;5020206;28;20041;-29
2022/12/21 10:28:00;;;;;;;7.70;3.60;;;5.10;99.90;;;;;;5019600;28;20037;-30
2022/12/21 10:30:26;;;;;;;4.75;3.88;;;5.20;99.90;;;;;;5023982;28;20044;-31
2022/12/21 10:32:52;;;;;;;5.50;3.55;;;4.90;99.90;;;;;;5019560;28;20034;-29
2022/12/21 10:35:27;;;;;;;3.65;3.35;;;4.80;99.90;;;;;;5019194;28;20120;-30
2022/12/21 10:37:54;;;;;;;3.38;3.08;;;4.50;99.90;;;;;;5024392;28;20040;-32
2022/12/21 10:40:27;;;;;;;6.27;3.70;;;4.30;99.90;;;;;;5024278;28;20036;-30
2022/12/21 10:42:55;;;;;;;5.45;3.80;;;4.20;99.90;;;;;;5043353;28;20037;-30
2022/12/21 10:45:24;;;;;;;5.88;4.82;;;4.30;99.90;;;;;;5024129;28;20364;-29
2022/12/21 10:47:50;;;;;;;4.50;3.78;;;4.40;99.90;;;;;;5026611;28;20033;-30
2022/12/21 10:50:16;;;;;;;4.43;3.75;;;4.50;99.90;;;;;;5024856;28;20072;-29
2022/12/21 10:52:51;;;;;;;5.30;3.80;;;4.40;99.90;;;;;;5021408;28;20040;-29
2022/12/21 10:55:19;;;;;;;7.00;3.97;;;4.70;99.90;;;;;;5019909;28;20033;-29
2022/12/21 10:58:02;;;;;;;5.20;4.38;;;4.70;99.90;;;;;;5027991;28;20028;-30
2022/12/21 11:00:28;;;;;;;7.07;3.50;;;4.60;99.90;;;;;;5026157;28;20041;-30
2022/12/21 11:03:19;;;;;;;6.28;4.00;;;4.50;99.90;;;;;;5024657;28;20033;-30
2022/12/21 11:05:48;;;;;;;3.80;3.30;;;4.60;99.90;;;;;;5022943;28;20026;-30
2022/12/21 11:08:14;;;;;;;3.75;2.90;;;4.50;99.90;;;;;;5040431;28;20045;-31
2022/12/21 11:10:45;;;;;;;5.75;3.50;;;4.30;99.90;;;;;;5027382;28;20033;-30
2022/12/21 11:13:12;;;;;;;8.00;4.43;;;4.40;99.90;;;;;;5021521;28;20486;-29
2022/12/21 11:15:50;;;;;;;4.68;3.95;;;4.40;99.90;;;;;;5021765;28;20045;-30
2022/12/21 11:18:40;;;;;;;7.37;4.13;;;4.50;99.90;;;;;;5023077;28;20044;-29
2022/12/21 11:21:37;;;;;;;5.30;4.78;;;4.40;99.90;;;;;;5018614;28;20110;-29
2022/12/21 11:24:19;;;;;;;3.97;3.63;;;4.20;99.90;;;;;;5019169;28;20069;-30
2022/12/21 11:27:03;;;;;;;5.55;4.40;;;4.30;99.90;;;;;;5021306;28;20402;-29
2022/12/21 11:29:58;;;;;;;7.03;4.68;;;4.30;99.90;;;;;;5024803;28;20038;-29
2022/12/21 11:32:35;;;;;;;3.83;3.00;;;4.40;99.90;;;;;;5007411;28;20069;-32
2022/12/21 11:35:04;;;;;;;2.88;2.63;;;4.40;99.90;;;;;;5035118;28;20030;-29
2022/12/21 11:37:35;;;;;;;16.02;4.40;;;4.30;99.90;;;;;;5019705;28;20163;-29
2022/12/21 11:40:10;;;;;;;5.47;4.53;;;4.30;99.90;;;;;;5027522;28;20116;-31
2022/12/21 11:43:06;;;;;;;6.65;6.00;;;4.20;99.90;;;;;;5029908;28;20036;-29
2022/12/21 11:46:10;;;;;;;5.15;4.40;;;4.20;99.90;;;;;;5018863;28;20022;-29
2022/12/21 11:48:55;;;;;;;9.80;6.85;;;4.50;99.90;;;;;;5026076;28;20033;-30
2022/12/21 11:52:04;;;;;;;8.05;5.28;;;4.40;99.90;;;;;;5025639;28;20037;-29
2022/12/21 11:54:30;;;;;;;4.70;3.90;;;4.40;99.90;;;;;;5028106;28;20084;-30
2022/12/21 11:57:29;;;;;;;6.07;4.22;;;4.50;99.90;;;;;;5030144;28;20403;-33
2022/12/21 12:00:10;;;;;;;6.88;4.75;;;4.60;99.90;;;;;;5029344;28;20049;-32
2022/12/21 12:02:55;;;;;;;7.95;5.55;;;4.60;99.90;;;;;;5026940;28;20033;-30
2022/12/21 12:05:43;;;;;;;7.32;4.90;;;4.60;99.90;;;;;;5020699;28;20041;-29
2022/12/21 12:08:18;;;;;;;8.52;5.15;;;4.60;99.90;;;;;;5025876;28;20025;-30
2022/12/21 12:11:07;;;;;;;7.22;5.60;;;4.60;99.90;;;;;;5030399;28;20029;-29
2022/12/21 12:13:47;;;;;;;7.50;5.43;;;4.70;99.90;;;;;;5028475;28;20044;-29
2022/12/21 12:16:40;;;;;;;5.75;4.15;;;4.60;99.90;;;;;;5024617;28;20054;-29
2022/12/21 12:19:31;;;;;;;9.63;4.35;;;4.70;99.90;;;;;;5025101;28;20044;-33
2022/12/21 12:22:18;;;;;;;6.57;4.30;;;4.70;99.90;;;;;;5032902;28;20033;-30
2022/12/21 12:25:04;;;;;;;9.50;4.57;;;4.70;99.90;;;;;;5026917;28;20029;-29
2022/12/21 12:28:01;;;;;;;8.95;4.40;;;4.70;99.90;;;;;;5027185;28;20033;-32
2022/12/21 12:30:45;;;;;;;9.88;5.45;;;4.80;99.90;;;;;;5026128;28;20406;-29
2022/12/21 12:33:39;;;;;;;6.95;4.28;;;4.90;99.90;;;;;;5042327;28;20040;-29
2022/12/21 12:36:37;;;;;;;7.55;5.07;;;5.00;99.90;;;;;;5038732;28;20083;-32
2022/12/21 12:39:19;;;;;;;11.25;5.85;;;5.20;99.90;;;;;;5015876;28;20049;-29
2022/12/21 12:41:44;;;;;;;6.47;4.00;;;5.10;99.90;;;;;;5040722;28;20021;-29
2022/12/21 12:44:31;;;;;;;7.70;5.03;;;5.30;99.90;;;;;;5026798;28;20388;-29
2022/12/21 12:47:12;;;;;;;7.85;4.80;;;5.20;99.90;;;;;;5038369;28;20036;-32
2022/12/21 12:50:15;;;;;;;9.23;4.70;;;5.30;99.90;;;;;;5026453;28;20032;-30
2022/12/21 12:53:17;;;;;;;8.77;5.07;;;5.40;99.90;;;;;;5027386;28;20112;-31
2022/12/21 12:56:02;;;;;;;4.28;2.75;;;5.40;99.90;;;;;;5019533;28;20499;-33
2022/12/21 12:58:47;;;;;;;3.90;3.25;;;5.50;99.90;;;;;;5025764;28;20083;-29
2022/12/21 13:01:48;;;;;;;6.57;4.63;;;5.50;99.90;;;;;;5019224;28;20134;-29
2022/12/21 13:04:44;;;;;;;4.93;4.38;;;5.40;99.90;;;;;;5043044;28;20168;-32
2022/12/21 13:08:04;;;;;;;4.60;4.20;;;5.70;99.90;;;;;;5027957;28;20063;-28
2022/12/21 13:10:52;;;;;;;6.95;4.15;;;5.60;99.90;;;;;;5011668;28;20037;-29
2022/12/21 13:13:57;;;;;;;4.57;3.22;;;5.70;99.90;;;;;;5025046;28;20069;-29
2022/12/21 13:16:54;;;;;;;6.47;4.00;;;5.80;99.90;;;;;;5024402;28;20080;-30
2022/12/21 13:19:22;;;;;;;8.45;3.97;;;5.80;99.90;;;;;;5006749;28;20735;-30
2022/12/21 13:22:02;;;;;;;7.75;4.25;;;5.80;99.90;;;;;;5028413;28;20065;-30
2022/12/21 13:24:37;;;;;;;4.55;2.65;;;5.80;99.90;;;;;;5036017;28;20025;-29
2022/12/21 13:27:12;;;;;;;4.63;4.18;;;5.80;99.90;;;;;;5024842;28;20029;-29
2022/12/21 13:29:44;;;;;;;4.28;3.78;;;5.90;99.90;;;;;;5006666;28;20068;-30
2022/12/21 13:32:16;;;;;;;5.00;3.78;;;5.90;99.90;;;;;;5022116;28;20042;-29
2022/12/21 13:35:00;;;;;;;5.20;3.60;;;5.90;99.90;;;;;;5035697;28;20025;-28
2022/12/21 13:37:26;;;;;;;4.68;3.60;;;5.90;99.90;;;;;;5023241;28;20532;-30
2022/12/21 13:40:20;;;;;;;8.48;4.53;;;5.90;99.90;;;;;;5025456;28;20040;-28